Terminal Aerodrome Forecast
Issued by NWS

Home | Current Version | Previous Version | Graphics & Text | Print | Product List | Glossary On
Versions: 1 2 3 4 5 6 7 8 9 10 11 12 13 14 15
600
FTUS43 KMPX 141720
TAFAXN
TAF
KAXN 141720Z 1418/1518 29007KT P6SM SKC
     FM150900 22005KT P6SM SKC
     FM151500 20007KT P6SM SCT250=

USA.gov is the U.S. government's official web portal to all federal, state and local government web resources and services.